createdAt,value
2018-06-29T00:00:58.221Z,21.10
2018-06-29T00:03:26.723Z,21.00
2018-06-29T00:05:54.773Z,21.00
2018-06-29T00:08:23.022Z,21.00
2018-06-29T00:10:51.757Z,21.00
2018-06-29T00:13:19.816Z,21.00
2018-06-29T00:15:48.799Z,20.90
2018-06-29T00:18:17.381Z,20.90
2018-06-29T00:20:45.654Z,20.90
2018-06-29T00:23:13.810Z,20.80
2018-06-29T00:25:42.008Z,20.80
2018-06-29T00:28:10.764Z,20.70
2018-06-29T00:30:38.847Z,20.60
2018-06-29T00:33:07.015Z,20.60
2018-06-29T00:35:35.059Z,20.60
2018-06-29T00:38:03.188Z,20.50
2018-06-29T00:40:34.019Z,20.50
2018-06-29T00:43:02.266Z,20.50
2018-06-29T00:45:31.367Z,20.50
2018-06-29T00:47:59.551Z,20.50
2018-06-29T00:50:27.807Z,20.50
2018-06-29T00:52:56.391Z,20.50
2018-06-29T00:55:24.819Z,20.40
2018-06-29T00:57:53.747Z,20.40
2018-06-29T01:00:22.330Z,20.40
2018-06-29T01:02:50.586Z,20.30
2018-06-29T01:05:19.317Z,20.30
2018-06-29T01:07:47.354Z,20.30
2018-06-29T01:10:15.399Z,20.30
2018-06-29T01:12:46.109Z,20.30
2018-06-29T01:15:14.168Z,20.30
2018-06-29T01:17:42.182Z,20.30
2018-06-29T01:20:10.193Z,20.20
2018-06-29T01:22:38.316Z,20.20
2018-06-29T01:25:07.169Z,20.20
2018-06-29T01:27:35.466Z,20.20
2018-06-29T01:30:04.150Z,20.20
2018-06-29T01:32:32.119Z,20.20
2018-06-29T01:35:01.204Z,20.20
2018-06-29T01:37:29.293Z,20.20
2018-06-29T01:42:25.986Z,20.20
2018-06-29T01:44:54.279Z,20.20
2018-06-29T01:47:22.415Z,20.20
2018-06-29T01:54:46.425Z,20.10
2018-06-29T01:57:15.089Z,20.10
2018-06-29T01:59:43.274Z,20.10
2018-06-29T02:02:11.312Z,20.10
2018-06-29T02:04:39.452Z,20.10
2018-06-29T02:07:07.557Z,20.10
2018-06-29T02:09:36.627Z,20.10
2018-06-29T02:12:07.273Z,20.00
2018-06-29T02:14:35.901Z,20.00
2018-06-29T02:17:03.944Z,20.00
2018-06-29T02:19:31.914Z,19.90
2018-06-29T02:22:00.698Z,19.90
2018-06-29T02:24:30.316Z,19.80
2018-06-29T02:26:58.549Z,19.80
2018-06-29T02:29:27.350Z,19.90
2018-06-29T02:31:55.528Z,19.90
2018-06-29T02:34:23.827Z,19.90
2018-06-29T02:36:52.750Z,20.00
2018-06-29T02:41:48.743Z,20.00
2018-06-29T02:44:16.827Z,20.00
2018-06-29T02:46:44.850Z,20.00
2018-06-29T02:49:12.862Z,19.90
2018-06-29T02:51:40.910Z,19.80
2018-06-29T02:54:09.007Z,19.80
2018-06-29T02:56:37.270Z,19.70
2018-06-29T02:59:05.307Z,19.70
2018-06-29T03:01:34.165Z,19.70
2018-06-29T03:04:02.185Z,19.60
2018-06-29T03:06:30.301Z,19.60
2018-06-29T03:08:58.329Z,19.60
2018-06-29T03:11:29.072Z,19.60
2018-06-29T03:13:57.362Z,19.70
2018-06-29T03:16:25.355Z,19.70
2018-06-29T03:21:22.670Z,19.60
2018-06-29T03:23:51.813Z,19.60
2018-06-29T03:31:15.798Z,19.60
2018-06-29T03:33:43.816Z,19.60
2018-06-29T03:36:11.886Z,19.60
2018-06-29T03:38:39.962Z,19.60
2018-06-29T03:41:08.131Z,19.70
2018-06-29T03:43:38.572Z,19.70
2018-06-29T03:46:06.746Z,19.70
2018-06-29T03:48:34.925Z,19.70
2018-06-29T03:51:03.948Z,19.70
2018-06-29T03:53:32.266Z,19.70
2018-06-29T03:58:28.313Z,19.80
2018-06-29T04:00:56.404Z,19.80
2018-06-29T04:03:26.462Z,19.70
2018-06-29T04:05:54.572Z,19.70
2018-06-29T04:10:50.643Z,19.70
2018-06-29T04:13:18.571Z,19.60
2018-06-29T04:18:14.366Z,19.60
2018-06-29T04:20:43.214Z,19.70
2018-06-29T04:23:11.301Z,19.70
2018-06-29T04:25:39.498Z,19.70
2018-06-29T04:28:09.997Z,19.80
2018-06-29T04:30:38.257Z,19.80
2018-06-29T04:33:07.043Z,19.80
2018-06-29T04:35:35.655Z,19.80
2018-06-29T04:38:03.710Z,19.80
2018-06-29T04:40:31.791Z,19.70
2018-06-29T04:43:00.078Z,19.80
2018-06-29T04:45:28.799Z,19.80
2018-06-29T04:47:56.858Z,19.90
2018-06-29T04:50:25.186Z,20.00
2018-06-29T04:52:53.402Z,20.10
2018-06-29T04:55:21.553Z,20.10
2018-06-29T04:57:50.402Z,20.10
2018-06-29T05:00:18.833Z,20.10
2018-06-29T05:02:47.889Z,20.10
2018-06-29T05:05:17.706Z,20.00
2018-06-29T05:07:46.084Z,20.10
2018-06-29T05:10:14.157Z,20.10
2018-06-29T05:12:43.031Z,20.00
2018-06-29T05:15:11.437Z,20.10
2018-06-29T05:17:39.531Z,20.10
2018-06-29T05:20:07.874Z,19.80
2018-06-29T05:22:35.891Z,19.80
2018-06-29T05:25:04.567Z,19.70
2018-06-29T05:27:33.499Z,19.70
2018-06-29T05:30:01.556Z,19.80
2018-06-29T05:32:30.375Z,19.80
2018-06-29T05:34:58.755Z,19.80
2018-06-29T05:37:27.262Z,19.90
2018-06-29T05:39:55.368Z,20.10
2018-06-29T05:42:23.605Z,20.30
2018-06-29T05:44:51.614Z,20.40
2018-06-29T05:47:19.853Z,20.60
2018-06-29T05:49:48.820Z,20.70
2018-06-29T05:52:17.928Z,20.70
2018-06-29T05:54:46.856Z,20.70
2018-06-29T05:57:15.371Z,20.70
2018-06-29T05:59:43.484Z,20.80
2018-06-29T06:04:40.096Z,20.80
2018-06-29T06:07:09.395Z,20.80
2018-06-29T06:09:39.498Z,20.80
2018-06-29T06:12:09.500Z,20.80
2018-06-29T06:14:40.723Z,20.80
2018-06-29T06:17:08.902Z,20.90
2018-06-29T06:19:48.226Z,21.00
2018-06-29T06:22:18.473Z,21.10
2018-06-29T06:24:47.463Z,21.10
2018-06-29T06:27:17.838Z,21.20
2018-06-29T06:29:46.009Z,21.20
2018-06-29T06:32:14.130Z,21.20
2018-06-29T06:34:42.644Z,21.30
2018-06-29T06:37:15.213Z,21.30
2018-06-29T06:39:43.437Z,21.40
2018-06-29T06:42:11.994Z,21.50
2018-06-29T06:44:40.019Z,21.80
2018-06-29T06:47:09.186Z,22.00
2018-06-29T06:49:37.753Z,23.00
2018-06-29T06:52:05.878Z,24.40
2018-06-29T06:54:38.121Z,25.90
2018-06-29T06:57:07.656Z,26.50
2018-06-29T06:59:39.865Z,26.40
2018-06-29T07:02:08.398Z,26.40
2018-06-29T07:04:39.825Z,27.60
2018-06-29T07:07:10.646Z,26.70
2018-06-29T07:09:40.274Z,26.90
2018-06-29T07:15:08.344Z,26.70
2018-06-29T07:17:46.438Z,27.30
2018-06-29T07:20:14.476Z,27.90
2018-06-29T07:22:43.520Z,27.70
2018-06-29T07:25:12.625Z,28.40
2018-06-29T07:27:41.656Z,28.80
2018-06-29T07:30:14.825Z,28.90
2018-06-29T07:32:43.918Z,28.80
2018-06-29T07:35:12.634Z,28.30
2018-06-29T07:37:48.139Z,29.60
2018-06-29T07:40:17.593Z,30.00
2018-06-29T07:42:49.204Z,28.90
2018-06-29T07:45:17.204Z,28.90
2018-06-29T07:47:46.884Z,29.30
2018-06-29T07:50:15.106Z,30.10
2018-06-29T07:52:43.519Z,30.10
2018-06-29T07:55:13.604Z,28.80
2018-06-29T07:57:44.360Z,27.40
2018-06-29T08:00:15.574Z,27.10
2018-06-29T08:02:47.967Z,26.40
2018-06-29T08:05:15.982Z,25.70
2018-06-29T08:07:44.133Z,25.50
2018-06-29T08:10:12.435Z,25.30
2018-06-29T08:15:09.150Z,24.90
2018-06-29T08:17:38.170Z,24.60
2018-06-29T08:20:06.329Z,24.80
2018-06-29T08:22:35.115Z,24.70
2018-06-29T08:25:10.949Z,24.60
2018-06-29T08:27:39.534Z,24.50
2018-06-29T08:30:11.390Z,24.40
2018-06-29T08:32:40.527Z,24.60
2018-06-29T08:35:09.619Z,25.00
2018-06-29T08:37:38.302Z,25.20
2018-06-29T08:40:08.237Z,25.40
2018-06-29T08:42:36.547Z,25.90
2018-06-29T08:45:09.628Z,26.70
2018-06-29T08:47:39.293Z,27.40
2018-06-29T08:50:07.371Z,27.70
2018-06-29T08:52:36.326Z,27.40
2018-06-29T08:55:05.878Z,27.40
2018-06-29T08:57:33.914Z,27.20
2018-06-29T09:00:02.365Z,27.20
2018-06-29T09:02:30.944Z,26.70
2018-06-29T09:05:01.082Z,26.40
2018-06-29T09:07:29.152Z,26.60
2018-06-29T09:09:57.337Z,28.10
2018-06-29T09:12:27.697Z,28.60
2018-06-29T09:14:56.689Z,29.50
2018-06-29T09:17:26.957Z,30.50
2018-06-29T09:20:00.699Z,30.30
2018-06-29T09:22:30.780Z,29.60
2018-06-29T09:24:58.774Z,29.40
2018-06-29T09:27:29.936Z,29.30
2018-06-29T09:29:58.680Z,30.60
2018-06-29T09:32:27.265Z,29.80
2018-06-29T09:34:55.321Z,29.60
2018-06-29T09:37:23.435Z,29.40
2018-06-29T09:39:51.518Z,29.20
2018-06-29T09:44:56.806Z,29.30
2018-06-29T09:47:25.012Z,29.40
2018-06-29T09:52:29.922Z,29.20
2018-06-29T09:55:01.861Z,29.20
2018-06-29T09:57:30.034Z,29.20
2018-06-29T09:59:58.098Z,28.60
2018-06-29T10:02:31.689Z,28.70
2018-06-29T10:04:54.753Z,27.90
2018-06-29T10:07:23.758Z,27.60
2018-06-29T10:09:51.772Z,26.60
2018-06-29T10:12:22.833Z,26.70
2018-06-29T10:14:50.992Z,26.60
2018-06-29T10:17:19.898Z,27.00
2018-06-29T10:22:24.220Z,26.80
2018-06-29T10:24:52.833Z,26.80
2018-06-29T10:27:22.114Z,27.20
2018-06-29T10:29:50.592Z,27.10
2018-06-29T10:32:20.355Z,27.00
2018-06-29T10:34:48.465Z,26.70
2018-06-29T10:37:20.047Z,26.80
2018-06-29T10:39:51.313Z,26.70
2018-06-29T10:42:22.150Z,26.70
2018-06-29T10:44:50.470Z,26.50
2018-06-29T10:47:18.702Z,26.40
2018-06-29T10:49:46.653Z,26.40
2018-06-29T10:52:14.847Z,26.30
2018-06-29T10:54:43.100Z,26.50
2018-06-29T10:57:11.642Z,26.50
2018-06-29T10:59:40.706Z,26.70
2018-06-29T11:02:09.692Z,26.60
2018-06-29T11:04:39.689Z,26.50
2018-06-29T11:07:07.990Z,26.70
2018-06-29T11:09:36.247Z,26.90
2018-06-29T11:12:05.044Z,27.10
2018-06-29T11:14:33.920Z,27.20
2018-06-29T11:17:01.998Z,27.30
2018-06-29T11:19:31.784Z,27.40
2018-06-29T11:22:00.024Z,26.90
2018-06-29T11:24:29.197Z,27.00
2018-06-29T11:26:58.720Z,27.10
2018-06-29T11:29:27.449Z,27.10
2018-06-29T11:31:59.313Z,26.90
2018-06-29T11:34:27.633Z,26.90
2018-06-29T11:36:56.698Z,27.10
2018-06-29T11:39:26.568Z,27.20
2018-06-29T11:41:54.814Z,27.20
2018-06-29T11:44:25.644Z,27.20
2018-06-29T11:46:53.723Z,27.40
2018-06-29T11:49:22.078Z,27.60
2018-06-29T11:51:51.352Z,27.60
2018-06-29T11:54:19.391Z,27.80
2018-06-29T11:56:48.007Z,27.50
2018-06-29T11:59:16.419Z,27.30
2018-06-29T12:01:44.559Z,27.10
2018-06-29T12:04:12.557Z,27.40
2018-06-29T12:06:40.666Z,27.70
2018-06-29T12:09:10.274Z,27.40
2018-06-29T12:11:38.326Z,27.40
2018-06-29T12:14:06.520Z,27.50
2018-06-29T12:16:34.955Z,27.20
2018-06-29T12:19:03.166Z,27.30
2018-06-29T12:21:32.331Z,27.90
2018-06-29T12:24:02.642Z,28.30
2018-06-29T12:26:33.453Z,28.00
2018-06-29T12:29:04.195Z,27.30
2018-06-29T12:31:34.157Z,27.70
2018-06-29T12:34:02.176Z,27.80
2018-06-29T12:36:30.765Z,27.70
2018-06-29T12:39:00.728Z,27.30
2018-06-29T12:41:29.346Z,27.40
2018-06-29T12:43:57.514Z,27.10
2018-06-29T12:46:27.108Z,27.30
2018-06-29T12:48:55.838Z,27.90
2018-06-29T12:51:27.776Z,28.40
2018-06-29T12:53:56.014Z,28.40
2018-06-29T12:56:24.009Z,27.70
2018-06-29T12:58:52.531Z,27.90
2018-06-29T13:01:23.057Z,28.40
2018-06-29T13:06:18.969Z,28.20
2018-06-29T13:08:48.431Z,28.30
2018-06-29T13:11:16.452Z,28.50
2018-06-29T13:13:44.965Z,27.70
2018-06-29T13:16:13.394Z,28.20
2018-06-29T13:18:41.870Z,28.50
2018-06-29T13:21:10.829Z,28.60
2018-06-29T13:23:39.106Z,28.50
2018-06-29T13:26:07.381Z,28.90
2018-06-29T13:28:35.660Z,28.30
2018-06-29T13:31:04.954Z,28.10
2018-06-29T13:33:33.149Z,28.20
2018-06-29T13:36:01.866Z,28.60
2018-06-29T13:38:30.798Z,28.80
2018-06-29T13:40:58.782Z,28.70
2018-06-29T13:43:26.852Z,28.30
2018-06-29T13:45:55.213Z,28.40
2018-06-29T13:48:26.322Z,28.20
2018-06-29T13:50:56.074Z,28.60
2018-06-29T13:53:25.238Z,28.90
2018-06-29T13:55:54.169Z,29.00
2018-06-29T13:58:22.879Z,28.80
2018-06-29T14:00:51.389Z,28.80
2018-06-29T14:03:19.714Z,28.80
2018-06-29T14:05:48.570Z,28.60
2018-06-29T14:08:17.834Z,28.50
2018-06-29T14:10:48.928Z,28.90
2018-06-29T14:13:17.371Z,29.10
2018-06-29T14:15:46.442Z,28.60
2018-06-29T14:18:14.592Z,28.60
2018-06-29T14:20:44.879Z,28.70
2018-06-29T14:23:13.031Z,28.60
2018-06-29T14:25:41.456Z,28.80
2018-06-29T14:28:09.692Z,28.80
2018-06-29T14:30:37.782Z,28.60
2018-06-29T14:33:08.056Z,28.90
2018-06-29T14:35:36.339Z,28.90
2018-06-29T14:38:04.785Z,29.10
2018-06-29T14:40:32.807Z,29.30
2018-06-29T14:43:02.818Z,29.20
2018-06-29T14:45:30.975Z,29.30
2018-06-29T14:48:00.479Z,29.50
2018-06-29T14:50:28.542Z,29.60
2018-06-29T14:52:56.730Z,29.60
2018-06-29T14:55:24.985Z,29.60
2018-06-29T14:57:53.057Z,29.20
2018-06-29T15:00:21.611Z,29.30
2018-06-29T15:02:49.767Z,29.30
2018-06-29T15:05:18.128Z,29.10
2018-06-29T15:07:48.563Z,28.60
2018-06-29T15:10:21.108Z,28.70
2018-06-29T15:12:50.390Z,29.00
2018-06-29T15:15:19.925Z,28.90
2018-06-29T15:17:50.271Z,29.00
2018-06-29T15:20:19.817Z,29.10
2018-06-29T15:22:48.782Z,29.10
2018-06-29T15:25:20.781Z,29.40
2018-06-29T15:27:49.576Z,29.50
2018-06-29T15:30:17.809Z,29.30
2018-06-29T15:32:46.069Z,29.30
2018-06-29T15:35:14.582Z,29.40
2018-06-29T15:37:42.812Z,29.30
2018-06-29T15:40:12.110Z,29.50
2018-06-29T15:42:42.600Z,29.50
2018-06-29T15:45:16.637Z,29.40
2018-06-29T15:47:46.511Z,29.10
2018-06-29T15:50:16.854Z,29.10
2018-06-29T15:52:45.927Z,29.10
2018-06-29T15:55:14.548Z,28.90
2018-06-29T15:57:42.617Z,28.60
2018-06-29T16:00:11.781Z,28.70
2018-06-29T16:02:40.023Z,29.00
2018-06-29T16:05:09.959Z,29.30
2018-06-29T16:07:39.077Z,29.40
2018-06-29T16:10:08.345Z,29.40
2018-06-29T16:12:36.481Z,29.30
2018-06-29T16:15:09.605Z,29.30
2018-06-29T16:17:38.610Z,29.10
2018-06-29T16:20:09.789Z,29.30
2018-06-29T16:22:41.092Z,29.20
2018-06-29T16:25:09.494Z,29.10
2018-06-29T16:27:38.729Z,29.20
2018-06-29T16:30:07.617Z,29.30
2018-06-29T16:32:35.813Z,29.30
2018-06-29T16:35:04.014Z,29.30
2018-06-29T16:37:33.540Z,29.20
2018-06-29T16:40:03.691Z,28.90
2018-06-29T16:42:33.569Z,29.10
2018-06-29T16:45:02.871Z,29.00
2018-06-29T16:47:32.043Z,29.00
2018-06-29T16:50:00.254Z,28.90
2018-06-29T16:52:28.871Z,28.80
2018-06-29T16:54:57.844Z,28.90
2018-06-29T16:57:25.974Z,28.80
2018-06-29T16:59:58.738Z,28.80
2018-06-29T17:02:27.563Z,28.80
2018-06-29T17:04:57.226Z,28.80
2018-06-29T17:07:28.327Z,28.80
2018-06-29T17:09:58.185Z,28.70
2018-06-29T17:12:28.181Z,28.70
2018-06-29T17:14:58.133Z,28.60
2018-06-29T17:17:28.491Z,28.60
2018-06-29T17:19:57.099Z,28.50
2018-06-29T17:22:26.615Z,28.50
2018-06-29T17:24:56.808Z,28.40
2018-06-29T17:27:33.322Z,28.30
2018-06-29T17:30:02.232Z,28.30
2018-06-29T17:32:31.521Z,28.40
2018-06-29T17:34:59.763Z,28.30
2018-06-29T17:37:28.796Z,28.30
2018-06-29T17:39:57.025Z,28.20
2018-06-29T17:42:26.889Z,28.30
2018-06-29T17:44:55.206Z,28.10
2018-06-29T17:47:23.593Z,28.00
2018-06-29T17:50:00.591Z,27.90
2018-06-29T17:52:30.707Z,27.90
2018-06-29T17:55:03.823Z,27.90
2018-06-29T17:57:35.274Z,27.80
2018-06-29T18:00:05.729Z,27.80
2018-06-29T18:02:35.023Z,27.70
2018-06-29T18:05:03.391Z,27.70
2018-06-29T18:07:32.106Z,27.60
2018-06-29T18:10:01.936Z,27.50
2018-06-29T18:15:00.172Z,27.40
2018-06-29T18:17:29.596Z,27.40
2018-06-29T18:20:00.328Z,27.30
2018-06-29T18:22:33.246Z,27.30
2018-06-29T18:25:07.543Z,27.30
2018-06-29T18:27:37.523Z,27.20
2018-06-29T18:30:07.687Z,27.10
2018-06-29T18:32:36.838Z,27.00
2018-06-29T18:35:06.301Z,27.00
2018-06-29T18:40:11.051Z,26.80
2018-06-29T18:42:40.521Z,26.80
2018-06-29T18:45:08.822Z,26.70
2018-06-29T18:47:45.743Z,26.60
2018-06-29T18:50:16.798Z,26.50
2018-06-29T18:52:45.650Z,26.40
2018-06-29T18:57:43.127Z,26.20
2018-06-29T19:00:12.776Z,26.20
2018-06-29T19:02:42.698Z,26.10
2018-06-29T19:05:12.367Z,26.00
2018-06-29T19:07:48.299Z,26.00
2018-06-29T19:10:19.103Z,25.90
2018-06-29T19:12:48.722Z,25.90
2018-06-29T19:15:19.609Z,25.80
2018-06-29T19:18:00.110Z,25.70
2018-06-29T19:20:28.449Z,25.60
2018-06-29T19:23:07.960Z,25.50
2018-06-29T19:25:38.862Z,25.50
2018-06-29T19:30:38.767Z,25.30
2018-06-29T19:33:07.639Z,25.20
2018-06-29T19:35:36.144Z,25.10
2018-06-29T19:38:05.362Z,25.00
2018-06-29T19:40:43.662Z,24.90
2018-06-29T19:43:18.098Z,24.90
2018-06-29T19:45:46.509Z,24.80
2018-06-29T19:48:18.770Z,24.80
2018-06-29T19:53:17.368Z,24.70
2018-06-29T19:58:20.412Z,24.60
2018-06-29T20:00:50.731Z,24.50
2018-06-29T20:03:19.410Z,24.50
2018-06-29T20:05:47.927Z,24.40
2018-06-29T20:08:26.855Z,24.30
2018-06-29T20:10:57.152Z,24.20
2018-06-29T20:13:29.918Z,24.10
2018-06-29T20:15:58.742Z,24.10
2018-06-29T20:18:29.667Z,24.00
2018-06-29T20:20:59.249Z,23.90
2018-06-29T20:23:34.696Z,23.90
2018-06-29T20:26:04.892Z,23.80
2018-06-29T20:28:34.796Z,23.70
2018-06-29T20:33:45.834Z,23.50
2018-06-29T20:36:26.901Z,23.50
2018-06-29T20:38:57.372Z,23.40
2018-06-29T20:41:26.993Z,23.30
2018-06-29T20:43:55.965Z,23.30
2018-06-29T20:46:30.305Z,23.20
2018-06-29T20:49:01.610Z,23.10
2018-06-29T20:51:30.024Z,23.10
2018-06-29T20:54:00.298Z,23.00
2018-06-29T20:59:02.557Z,22.80
2018-06-29T21:01:30.970Z,22.70
2018-06-29T21:04:00.387Z,22.60
2018-06-29T21:06:30.366Z,22.60
2018-06-29T21:08:59.504Z,22.60
2018-06-29T21:11:29.794Z,22.50
2018-06-29T21:13:58.255Z,22.50
2018-06-29T21:16:26.786Z,22.40
2018-06-29T21:18:56.691Z,22.40
2018-06-29T21:21:25.275Z,22.30
2018-06-29T21:23:55.101Z,22.30
2018-06-29T21:26:23.335Z,22.20
2018-06-29T21:28:53.154Z,22.10
2018-06-29T21:31:23.771Z,22.10
2018-06-29T21:33:52.636Z,22.00
2018-06-29T21:36:22.461Z,22.00
2018-06-29T21:38:52.705Z,21.90
2018-06-29T21:41:22.154Z,21.90
2018-06-29T21:43:58.035Z,21.80
2018-06-29T21:46:28.716Z,21.80
2018-06-29T21:48:58.251Z,21.70
2018-06-29T21:51:27.106Z,21.70
2018-06-29T21:53:55.788Z,21.70
2018-06-29T21:56:26.576Z,21.60
2018-06-29T21:58:56.763Z,21.60
2018-06-29T22:01:24.896Z,21.60
2018-06-29T22:03:56.293Z,21.50
2018-06-29T22:06:24.734Z,21.40
2018-06-29T22:08:55.333Z,21.30
2018-06-29T22:11:25.084Z,21.30
2018-06-29T22:13:54.401Z,21.20
2018-06-29T22:16:29.527Z,21.20
2018-06-29T22:18:58.285Z,21.20
2018-06-29T22:21:30.068Z,21.10
2018-06-29T22:24:03.871Z,21.10
2018-06-29T22:26:33.890Z,21.00
2018-06-29T22:29:05.369Z,20.90
2018-06-29T22:31:34.682Z,20.80
2018-06-29T22:34:03.607Z,20.60
2018-06-29T22:36:35.609Z,20.50
2018-06-29T22:39:07.579Z,20.50
2018-06-29T22:41:43.878Z,20.40
2018-06-29T22:44:12.297Z,20.40
2018-06-29T22:46:42.244Z,20.30
2018-06-29T22:51:40.101Z,19.80
2018-06-29T22:54:09.859Z,19.60
2018-06-29T22:56:37.923Z,19.40
2018-06-29T22:59:08.438Z,19.40
2018-06-29T23:01:36.755Z,19.20
2018-06-29T23:04:05.033Z,19.10
2018-06-29T23:06:33.335Z,19.10
2018-06-29T23:09:04.477Z,19.10
2018-06-29T23:11:34.222Z,19.20
2018-06-29T23:14:04.174Z,19.20
2018-06-29T23:16:32.679Z,19.20
2018-06-29T23:19:00.868Z,19.20
2018-06-29T23:21:32.167Z,19.20
2018-06-29T23:24:00.328Z,19.20
2018-06-29T23:26:29.591Z,19.10
2018-06-29T23:28:58.954Z,19.10
2018-06-29T23:31:28.247Z,19.00
2018-06-29T23:36:32.328Z,19.00
2018-06-29T23:39:00.453Z,18.90
2018-06-29T23:41:29.360Z,18.70
2018-06-29T23:43:57.436Z,18.70
2018-06-29T23:46:26.829Z,18.70
2018-06-29T23:48:56.811Z,18.60
2018-06-29T23:51:25.317Z,18.70
2018-06-29T23:53:53.897Z,18.60
2018-06-29T23:56:22.066Z,18.50
2018-06-29T23:58:51.618Z,18.40
